createdAt,value
2022-08-11T00:01:29.823Z,10.30
2022-08-11T00:04:03.158Z,8.05
2022-08-11T00:06:35.103Z,9.07
2022-08-11T00:09:07.308Z,9.55
2022-08-11T00:11:50.141Z,7.20
2022-08-11T00:14:19.909Z,8.57
2022-08-11T00:17:14.278Z,7.68
2022-08-11T00:20:13.392Z,8.27
2022-08-11T00:22:35.366Z,11.30
2022-08-11T00:25:17.191Z,8.88
2022-08-11T00:27:45.102Z,7.93
2022-08-11T00:30:13.816Z,10.35
2022-08-11T00:32:56.549Z,7.78
2022-08-11T00:35:54.742Z,12.02
2022-08-11T00:38:17.893Z,10.27
2022-08-11T00:40:59.712Z,9.10
2022-08-11T00:43:59.819Z,9.73
2022-08-11T00:46:27.056Z,10.23
2022-08-11T00:49:12.446Z,8.00
2022-08-11T00:52:25.238Z,8.05
2022-08-11T00:55:01.185Z,9.10
2022-08-11T00:57:46.586Z,8.25
2022-08-11T01:00:21.019Z,9.30
2022-08-11T01:03:07.041Z,8.55
2022-08-11T01:05:51.874Z,7.60
2022-08-11T01:08:22.375Z,9.20
2022-08-11T01:11:05.192Z,8.02
2022-08-11T01:14:13.604Z,7.85
2022-08-11T01:17:05.178Z,7.50
2022-08-11T01:20:45.247Z,7.43
2022-08-11T01:22:42.761Z,8.83
2022-08-11T01:25:13.202Z,9.07
2022-08-11T01:28:18.745Z,8.43
2022-08-11T01:31:02.697Z,8.80
2022-08-11T01:34:05.238Z,7.43
2022-08-11T01:36:32.517Z,9.30
2022-08-11T01:39:22.816Z,8.57
2022-08-11T01:42:24.645Z,8.63
2022-08-11T01:45:03.500Z,8.63
2022-08-11T01:47:52.971Z,9.00
2022-08-11T01:50:28.481Z,8.60
2022-08-11T01:53:04.368Z,10.05
2022-08-11T01:59:16.618Z,8.73
2022-08-11T02:02:17.756Z,8.90
2022-08-11T02:05:11.340Z,8.70
2022-08-11T02:07:57.278Z,8.32
2022-08-11T02:10:52.392Z,8.32
2022-08-11T02:13:42.275Z,8.18
2022-08-11T02:16:45.935Z,8.48
2022-08-11T02:19:37.377Z,9.73
2022-08-11T02:22:38.374Z,8.95
2022-08-11T02:25:11.809Z,7.53
2022-08-11T02:28:14.942Z,7.60
2022-08-11T02:32:15.632Z,7.63
2022-08-11T02:34:42.988Z,11.33
2022-08-11T02:37:33.426Z,7.80
2022-08-11T02:40:31.746Z,7.43
2022-08-11T02:43:07.943Z,9.73
2022-08-11T02:45:54.939Z,11.05
2022-08-11T02:48:56.558Z,8.67
2022-08-11T02:52:04.053Z,9.07
2022-08-11T02:54:37.502Z,8.82
2022-08-11T02:57:31.432Z,9.45
2022-08-11T03:00:13.928Z,8.90
2022-08-11T03:02:56.274Z,8.20
2022-08-11T03:05:50.294Z,8.70
2022-08-11T03:08:51.615Z,7.85
2022-08-11T03:11:37.259Z,7.57
2022-08-11T03:14:31.579Z,10.23
2022-08-11T03:17:16.949Z,8.17
2022-08-11T03:20:00.602Z,9.75
2022-08-11T03:22:40.799Z,8.90
2022-08-11T03:25:35.517Z,10.48
2022-08-11T03:28:31.862Z,9.00
2022-08-11T03:31:08.021Z,9.00
2022-08-11T03:34:07.637Z,7.95
2022-08-11T03:37:15.037Z,11.32
2022-08-11T03:40:04.862Z,7.85
2022-08-11T03:42:47.256Z,8.43
2022-08-11T03:45:41.185Z,8.90
2022-08-11T03:48:19.831Z,8.73
2022-08-11T03:51:17.815Z,7.50
2022-08-11T03:54:20.627Z,8.32
2022-08-11T03:57:16.008Z,9.10
2022-08-11T04:00:04.735Z,14.07
2022-08-11T04:03:15.762Z,8.95
2022-08-11T04:06:09.566Z,8.75
2022-08-11T04:08:55.984Z,9.10
2022-08-11T04:12:09.441Z,8.50
2022-08-11T04:15:07.008Z,9.03
2022-08-11T04:17:48.970Z,8.50
2022-08-11T04:20:32.935Z,8.23
2022-08-11T04:24:33.154Z,8.15
2022-08-11T04:26:34.141Z,8.57
2022-08-11T04:29:10.527Z,7.57
2022-08-11T04:32:24.475Z,13.18
2022-08-11T04:35:30.860Z,7.88
2022-08-11T04:38:29.463Z,8.73
2022-08-11T04:41:21.748Z,9.38
2022-08-11T04:44:24.387Z,7.63
2022-08-11T04:48:04.386Z,8.45
2022-08-11T04:51:16.408Z,8.18
2022-08-11T04:54:55.133Z,10.27
2022-08-11T04:58:30.054Z,9.55
2022-08-11T05:01:41.996Z,8.70
2022-08-11T05:05:14.208Z,8.52
2022-08-11T05:07:56.691Z,9.43
2022-08-11T05:10:53.772Z,7.70
2022-08-11T05:13:53.253Z,8.70
2022-08-11T05:16:50.094Z,10.83
2022-08-11T05:19:41.033Z,9.50
2022-08-11T05:22:30.722Z,8.52
2022-08-11T05:26:45.486Z,8.90
2022-08-11T05:28:55.624Z,7.63
2022-08-11T05:31:51.144Z,8.23
2022-08-11T05:34:47.633Z,7.72
2022-08-11T05:37:27.230Z,8.48
2022-08-11T05:40:27.697Z,8.30
2022-08-11T05:43:20.222Z,8.60
2022-08-11T05:46:20.664Z,9.03
2022-08-11T05:49:10.065Z,8.15
2022-08-11T05:52:05.856Z,11.05
2022-08-11T05:55:05.396Z,8.68
2022-08-11T05:57:50.880Z,9.13
2022-08-11T06:00:19.896Z,7.97
2022-08-11T06:02:56.796Z,9.05
2022-08-11T06:05:44.667Z,8.52
2022-08-11T06:08:15.583Z,7.95
2022-08-11T06:10:45.608Z,8.07
2022-08-11T06:13:17.222Z,9.10
2022-08-11T06:15:50.054Z,8.85
2022-08-11T06:18:17.962Z,9.77
2022-08-11T06:20:56.726Z,9.23
2022-08-11T06:23:31.316Z,8.25
2022-08-11T06:25:59.525Z,8.17
2022-08-11T06:28:33.605Z,9.40
2022-08-11T06:31:03.304Z,9.48
2022-08-11T06:33:51.288Z,9.40
2022-08-11T06:36:34.885Z,7.50
2022-08-11T06:39:23.677Z,9.23
2022-08-11T06:42:05.792Z,8.93
2022-08-11T06:44:48.635Z,9.45
2022-08-11T06:47:18.387Z,9.93
2022-08-11T06:50:08.184Z,9.25
2022-08-11T06:52:39.281Z,9.40
2022-08-11T06:55:57.094Z,8.25
2022-08-11T06:58:22.777Z,8.10
2022-08-11T07:00:57.738Z,11.25
2022-08-11T07:03:29.156Z,9.18
2022-08-11T07:06:06.503Z,7.87
2022-08-11T07:09:27.766Z,9.82
2022-08-11T07:12:25.621Z,11.07
2022-08-11T07:15:14.046Z,7.55
2022-08-11T07:18:23.598Z,8.30
2022-08-11T07:22:00.583Z,10.60
2022-08-11T07:24:20.648Z,8.65
2022-08-11T07:27:24.707Z,9.50
2022-08-11T07:29:53.487Z,10.35
2022-08-11T07:32:27.444Z,7.80
2022-08-11T07:35:17.946Z,9.20
2022-08-11T07:38:01.389Z,10.95
2022-08-11T07:40:30.799Z,8.80
2022-08-11T07:43:01.060Z,7.80
2022-08-11T07:45:48.481Z,9.77
2022-08-11T07:48:37.624Z,9.70
2022-08-11T07:51:24.133Z,9.80
2022-08-11T07:54:16.358Z,8.25
2022-08-11T07:57:07.295Z,7.85
2022-08-11T08:00:00.117Z,7.70
2022-08-11T08:03:01.839Z,9.93
2022-08-11T08:05:49.107Z,9.05
2022-08-11T08:08:36.113Z,8.38
2022-08-11T08:11:27.573Z,8.20
2022-08-11T08:14:14.864Z,8.13
2022-08-11T08:17:02.728Z,6.93
2022-08-11T08:19:31.919Z,9.77
2022-08-11T08:22:06.113Z,9.70
2022-08-11T08:24:48.224Z,8.00
2022-08-11T08:27:16.303Z,8.15
2022-08-11T08:30:04.100Z,9.47
2022-08-11T08:32:32.637Z,9.88
2022-08-11T08:35:01.420Z,7.32
2022-08-11T08:37:47.059Z,9.45
2022-08-11T08:40:15.912Z,9.80
2022-08-11T08:42:54.037Z,8.13
2022-08-11T08:45:22.538Z,8.20
2022-08-11T08:48:01.945Z,9.15
2022-08-11T08:50:57.514Z,9.50
2022-08-11T08:53:33.143Z,8.35
2022-08-11T08:56:02.328Z,8.13
2022-08-11T08:58:31.463Z,8.43
2022-08-11T09:01:01.084Z,9.57
2022-08-11T09:04:02.778Z,8.85
2022-08-11T09:06:18.608Z,7.35
2022-08-11T09:08:47.054Z,9.27
2022-08-11T09:11:42.445Z,8.30
2022-08-11T09:14:14.915Z,8.90
2022-08-11T09:16:44.580Z,10.18
2022-08-11T09:19:17.887Z,8.30
2022-08-11T09:22:09.387Z,9.27
2022-08-11T09:24:57.064Z,7.30
2022-08-11T09:27:26.997Z,8.30
2022-08-11T09:29:55.573Z,7.97
2022-08-11T09:32:24.017Z,9.15
2022-08-11T09:34:54.108Z,8.37
2022-08-11T09:37:55.467Z,8.88
2022-08-11T09:40:31.414Z,8.23
2022-08-11T09:43:25.275Z,9.00
2022-08-11T09:45:54.364Z,9.40
2022-08-11T09:48:27.240Z,8.87
2022-08-11T09:50:57.234Z,7.63
2022-08-11T09:53:35.070Z,7.10
2022-08-11T09:56:28.990Z,7.55
2022-08-11T09:58:56.855Z,8.55
2022-08-11T10:01:30.364Z,9.23
2022-08-11T10:04:11.035Z,10.07
2022-08-11T10:06:58.719Z,8.57
2022-08-11T10:09:39.645Z,7.05
2022-08-11T10:12:14.915Z,8.77
2022-08-11T10:15:03.858Z,6.60
2022-08-11T10:17:34.385Z,6.60
2022-08-11T10:20:06.051Z,8.00
2022-08-11T10:22:54.330Z,12.75
2022-08-11T10:25:41.241Z,7.45
2022-08-11T10:28:17.766Z,8.80
2022-08-11T10:31:17.305Z,6.85
2022-08-11T10:34:01.552Z,7.15
2022-08-11T10:36:34.981Z,8.05
2022-08-11T10:39:04.739Z,7.68
2022-08-11T10:42:02.786Z,7.87
2022-08-11T10:44:40.486Z,7.15
2022-08-11T10:47:29.731Z,9.25
2022-08-11T10:50:17.187Z,6.70
2022-08-11T10:53:06.586Z,7.90
2022-08-11T10:55:54.729Z,8.03
2022-08-11T10:58:45.373Z,7.72
2022-08-11T11:01:14.985Z,6.72
2022-08-11T11:03:43.651Z,9.70
2022-08-11T11:06:28.164Z,7.60
2022-08-11T11:09:06.309Z,8.50
2022-08-11T11:12:06.016Z,9.07
2022-08-11T11:14:58.218Z,6.97
2022-08-11T11:18:01.751Z,10.55
2022-08-11T11:20:46.721Z,7.30
2022-08-11T11:23:33.625Z,7.00
2022-08-11T11:26:14.822Z,9.18
2022-08-11T11:28:47.920Z,7.28
2022-08-11T11:31:46.466Z,9.90
2022-08-11T11:34:53.119Z,6.78
2022-08-11T11:37:24.109Z,8.53
2022-08-11T11:39:57.776Z,7.78
2022-08-11T11:42:26.444Z,7.22
2022-08-11T11:44:56.074Z,7.15
2022-08-11T11:47:24.475Z,6.80
2022-08-11T11:49:53.391Z,7.87
2022-08-11T11:52:22.518Z,6.65
2022-08-11T11:54:55.600Z,6.28
2022-08-11T11:57:58.550Z,7.22
2022-08-11T12:00:47.734Z,6.85
2022-08-11T12:03:15.779Z,6.70
2022-08-11T12:05:44.818Z,8.80
2022-08-11T12:08:16.416Z,6.70
2022-08-11T12:11:16.458Z,7.30
2022-08-11T12:13:47.300Z,7.30
2022-08-11T12:16:33.125Z,6.57
2022-08-11T12:19:05.753Z,11.90
2022-08-11T12:21:36.232Z,6.65
2022-08-11T12:24:23.137Z,8.98
2022-08-11T12:27:17.949Z,6.28
2022-08-11T12:30:00.803Z,7.33
2022-08-11T12:32:31.267Z,7.90
2022-08-11T12:34:59.221Z,8.30
2022-08-11T12:38:02.625Z,7.72
2022-08-11T12:44:04.689Z,10.40
2022-08-11T12:46:34.882Z,11.20
2022-08-11T12:49:31.762Z,8.38
2022-08-11T12:52:14.495Z,9.93
2022-08-11T12:54:52.503Z,9.15
2022-08-11T12:57:47.381Z,8.17
2022-08-11T13:00:34.756Z,6.80
2022-08-11T13:03:22.256Z,8.13
2022-08-11T13:05:54.065Z,7.13
2022-08-11T13:08:25.292Z,7.40
2022-08-11T13:11:13.258Z,7.63
2022-08-11T13:13:54.031Z,7.82
2022-08-11T13:16:32.622Z,8.30
2022-08-11T13:19:01.653Z,7.00
2022-08-11T13:21:29.876Z,8.90
2022-08-11T13:23:59.423Z,6.70
2022-08-11T13:26:43.676Z,8.98
2022-08-11T13:29:21.072Z,10.07
2022-08-11T13:31:49.589Z,8.15
2022-08-11T13:34:19.784Z,8.63
2022-08-11T13:36:52.787Z,8.53
2022-08-11T13:39:24.632Z,8.57
2022-08-11T13:41:57.056Z,8.57
2022-08-11T13:44:27.680Z,7.43
2022-08-11T13:47:01.822Z,7.85
2022-08-11T13:49:34.120Z,7.07
2022-08-11T13:52:02.978Z,6.40
2022-08-11T13:54:37.435Z,7.32
2022-08-11T13:58:09.097Z,8.02
2022-08-11T14:00:27.642Z,7.53
2022-08-11T14:02:58.208Z,7.53
2022-08-11T14:05:46.783Z,7.28
2022-08-11T14:08:31.783Z,7.40
2022-08-11T14:12:22.486Z,9.57
2022-08-11T14:14:21.660Z,9.10
2022-08-11T14:16:51.468Z,6.60
2022-08-11T14:19:23.236Z,9.80
2022-08-11T14:22:08.761Z,9.52
2022-08-11T14:24:43.162Z,7.68
2022-08-11T14:28:29.439Z,6.93
2022-08-11T14:30:01.142Z,7.47
2022-08-11T14:32:28.893Z,8.27
2022-08-11T14:34:56.966Z,8.57
2022-08-11T14:37:27.588Z,8.60
2022-08-11T14:40:03.259Z,6.53
2022-08-11T14:42:51.017Z,8.90
2022-08-11T14:45:57.762Z,7.40
2022-08-11T14:48:25.474Z,7.47
2022-08-11T14:50:53.892Z,7.88
2022-08-11T14:53:23.760Z,8.57
2022-08-11T14:56:10.765Z,8.83
2022-08-11T14:58:40.410Z,7.38
2022-08-11T15:01:28.093Z,6.82
2022-08-11T15:04:02.671Z,7.25
2022-08-11T15:06:47.735Z,6.85
2022-08-11T15:09:16.340Z,9.40
2022-08-11T15:12:04.715Z,8.15
2022-08-11T15:14:55.993Z,10.82
2022-08-11T15:17:24.294Z,11.13
2022-08-11T15:20:26.329Z,7.80
2022-08-11T15:23:12.677Z,7.57
2022-08-11T15:25:46.409Z,7.20
2022-08-11T15:28:34.532Z,8.23
2022-08-11T15:31:22.441Z,8.95
2022-08-11T15:34:11.999Z,13.07
2022-08-11T15:36:59.881Z,9.43
2022-08-11T15:39:59.204Z,11.55
2022-08-11T15:42:45.271Z,10.93
2022-08-11T15:45:34.584Z,9.30
2022-08-11T15:48:10.576Z,9.20
2022-08-11T15:50:42.506Z,8.37
2022-08-11T15:53:18.650Z,9.75
2022-08-11T15:55:48.421Z,10.00
2022-08-11T15:58:37.476Z,12.60
2022-08-11T16:01:24.671Z,10.82
2022-08-11T16:04:13.193Z,12.53
2022-08-11T16:07:03.745Z,12.43
2022-08-11T16:09:51.686Z,11.00
2022-08-11T16:12:30.197Z,15.02
2022-08-11T16:15:28.182Z,12.75
2022-08-11T16:18:07.210Z,11.07
2022-08-11T16:20:36.092Z,12.20
2022-08-11T16:23:06.804Z,10.70
2022-08-11T16:27:03.823Z,9.93
2022-08-11T16:28:25.574Z,9.55
2022-08-11T16:30:54.757Z,8.10
2022-08-11T16:33:49.963Z,9.98
2022-08-11T16:36:33.449Z,8.70
2022-08-11T16:39:02.654Z,8.82
2022-08-11T16:41:51.954Z,12.88
2022-08-11T16:44:38.901Z,21.87
2022-08-11T16:47:11.022Z,15.45
2022-08-11T16:49:59.533Z,14.85
2022-08-11T16:52:27.013Z,11.63
2022-08-11T16:54:54.394Z,10.75
2022-08-11T16:57:45.829Z,11.40
2022-08-11T17:00:16.902Z,10.30
2022-08-11T17:03:12.145Z,12.10
2022-08-11T17:06:03.750Z,12.75
2022-08-11T17:08:59.917Z,10.35
2022-08-11T17:11:49.699Z,11.30
2022-08-11T17:14:35.107Z,11.45
2022-08-11T17:17:12.941Z,12.65
2022-08-11T17:20:41.623Z,10.88
2022-08-11T17:22:59.750Z,10.93
2022-08-11T17:26:03.159Z,8.33
2022-08-11T17:28:21.109Z,9.93
2022-08-11T17:31:21.766Z,10.85
2022-08-11T17:34:10.576Z,10.02
2022-08-11T17:36:43.148Z,9.38
2022-08-11T17:39:15.282Z,11.67
2022-08-11T17:42:03.118Z,9.27
2022-08-11T17:44:50.262Z,8.50
2022-08-11T17:47:37.033Z,9.43
2022-08-11T17:50:15.942Z,9.20
2022-08-11T17:53:05.533Z,10.23
2022-08-11T17:55:53.912Z,12.40
2022-08-11T17:58:40.586Z,10.30
2022-08-11T18:01:11.154Z,10.70
2022-08-11T18:03:41.772Z,11.07
2022-08-11T18:06:29.644Z,9.27
2022-08-11T18:09:23.258Z,10.55
2022-08-11T18:12:12.744Z,9.23
2022-08-11T18:15:03.200Z,8.48
2022-08-11T18:17:49.184Z,9.25
2022-08-11T18:20:36.701Z,7.97
2022-08-11T18:23:41.935Z,9.25
2022-08-11T18:26:36.980Z,9.88
2022-08-11T18:29:25.334Z,8.23
2022-08-11T18:32:21.772Z,8.57
2022-08-11T18:35:12.649Z,8.37
2022-08-11T18:38:05.437Z,11.35
2022-08-11T18:40:54.188Z,8.32
2022-08-11T18:43:43.086Z,8.98
2022-08-11T18:46:31.992Z,8.20
2022-08-11T18:49:22.413Z,8.90
2022-08-11T18:52:12.530Z,8.85
2022-08-11T18:55:02.102Z,8.95
2022-08-11T18:57:54.044Z,10.52
2022-08-11T19:00:43.654Z,10.77
2022-08-11T19:03:44.798Z,10.30
2022-08-11T19:06:40.477Z,12.52
2022-08-11T19:09:30.817Z,12.02
2022-08-11T19:12:18.431Z,11.23
2022-08-11T19:15:06.613Z,11.20
2022-08-11T19:17:54.524Z,10.83
2022-08-11T19:20:44.083Z,9.70
2022-08-11T19:23:33.425Z,10.93
2022-08-11T19:26:20.373Z,9.70
2022-08-11T19:29:09.418Z,9.68
2022-08-11T19:32:18.252Z,9.83
2022-08-11T19:35:06.559Z,9.02
2022-08-11T19:37:54.269Z,8.20
2022-08-11T19:40:41.471Z,9.40
2022-08-11T19:43:29.418Z,9.07
2022-08-11T19:46:17.879Z,9.50
2022-08-11T19:49:12.955Z,9.77
2022-08-11T19:52:00.169Z,8.90
2022-08-11T19:54:48.692Z,10.75
2022-08-11T19:57:39.949Z,11.32
2022-08-11T20:00:32.207Z,12.27
2022-08-11T20:03:24.590Z,9.93
2022-08-11T20:06:13.612Z,11.32
2022-08-11T20:09:02.572Z,11.85
2022-08-11T20:11:57.513Z,10.68
2022-08-11T20:14:46.706Z,12.57
2022-08-11T20:17:34.405Z,11.95
2022-08-11T20:20:25.122Z,14.10
2022-08-11T20:23:16.160Z,13.60
2022-08-11T20:26:27.824Z,10.88
2022-08-11T20:29:14.225Z,19.03
2022-08-11T20:32:06.350Z,17.77
2022-08-11T20:34:56.697Z,14.88
2022-08-11T20:37:48.847Z,13.82
2022-08-11T20:40:40.331Z,14.77
2022-08-11T20:44:06.128Z,15.17
2022-08-11T20:46:45.216Z,13.00
2022-08-11T20:49:45.288Z,13.32
2022-08-11T20:52:39.492Z,13.93
2022-08-11T20:55:51.838Z,14.07
2022-08-11T20:59:11.168Z,12.27
2022-08-11T21:01:45.321Z,12.40
2022-08-11T21:04:32.916Z,14.30
2022-08-11T21:07:27.939Z,11.85
2022-08-11T21:10:22.966Z,13.40
2022-08-11T21:13:25.977Z,11.07
2022-08-11T21:16:27.019Z,12.18
2022-08-11T21:19:59.854Z,10.77
2022-08-11T21:22:58.994Z,10.77
2022-08-11T21:26:04.567Z,11.32
2022-08-11T21:28:52.766Z,11.40
2022-08-11T21:31:40.263Z,12.30
2022-08-11T21:34:29.059Z,11.95
2022-08-11T21:37:17.566Z,12.80
2022-08-11T21:40:08.269Z,11.00
2022-08-11T21:42:58.041Z,10.77
2022-08-11T21:45:45.208Z,12.38
2022-08-11T21:48:32.721Z,11.35
2022-08-11T21:51:18.611Z,11.90
2022-08-11T21:54:05.838Z,11.38
2022-08-11T21:56:54.546Z,10.67
2022-08-11T21:59:50.491Z,11.63
2022-08-11T22:02:37.203Z,10.55
2022-08-11T22:05:23.950Z,11.68
2022-08-11T22:08:10.613Z,13.43
2022-08-11T22:10:57.273Z,10.60
2022-08-11T22:14:01.239Z,12.57
2022-08-11T22:16:50.337Z,12.30
2022-08-11T22:19:36.757Z,9.93
2022-08-11T22:22:26.318Z,10.77
2022-08-11T22:25:16.664Z,10.70
2022-08-11T22:28:04.543Z,10.98
2022-08-11T22:30:50.861Z,12.32
2022-08-11T22:33:42.099Z,13.13
2022-08-11T22:36:46.185Z,11.45
2022-08-11T22:39:35.407Z,14.63
2022-08-11T22:42:28.903Z,14.32
2022-08-11T22:45:20.579Z,11.25
2022-08-11T22:48:08.139Z,11.60
2022-08-11T22:50:58.406Z,12.32
2022-08-11T22:53:55.236Z,12.10
2022-08-11T22:56:50.533Z,11.50
2022-08-11T22:59:37.827Z,12.18
2022-08-11T23:02:25.277Z,10.95
2022-08-11T23:05:11.956Z,13.38
2022-08-11T23:08:00.011Z,16.93
2022-08-11T23:10:46.741Z,15.13
2022-08-11T23:13:33.341Z,14.48
2022-08-11T23:16:19.908Z,11.95
2022-08-11T23:19:06.489Z,14.40
2022-08-11T23:21:53.705Z,12.33
2022-08-11T23:24:40.673Z,14.48
2022-08-11T23:27:28.472Z,11.10
2022-08-11T23:30:18.952Z,13.38
2022-08-11T23:33:07.321Z,11.20
2022-08-11T23:35:57.974Z,12.73
2022-08-11T23:38:47.506Z,11.05
2022-08-11T23:41:36.294Z,13.02
2022-08-11T23:44:23.571Z,13.77
2022-08-11T23:47:14.442Z,11.70
2022-08-11T23:50:01.260Z,12.13
2022-08-11T23:52:48.748Z,11.32
2022-08-11T23:55:39.225Z,11.45
2022-08-11T23:58:25.974Z,11.23
